Terminal Aerodrome Forecast
Issued by NWS

Home | Current Version | Previous Version | Text Only | Print | Product List | Glossary On
Versions: 1 2 3 4 5 6 7 8 9 10 11 12
000
FTUS42 KTBW 012300
TAFPGD
TAF
KPGD 012336Z 0200/0224 36007KT P6SM FEW050 BKN110
     FM020200 VRB03KT P6SM FEW030 SCT250
     FM021400 04005KT P6SM SCT035 BKN250
     FM021800 33007KT P6SM VCTS SCT040CB BKN080 BKN250=

USA.gov is the U.S. government's official web portal to all federal, state and local government web resources and services.